createdAt,value
2022-11-20T00:01:22.429Z,96673.53
2022-11-20T00:03:49.407Z,96668.13
2022-11-20T00:06:18.382Z,96662.97
2022-11-20T00:08:45.741Z,96662.25
2022-11-20T00:11:22.835Z,96653.78
2022-11-20T00:13:51.568Z,96662.78
2022-11-20T00:16:20.279Z,96650.72
2022-11-20T00:18:47.201Z,96646.88
2022-11-20T00:21:14.987Z,96666.13
2022-11-20T00:23:42.369Z,96655.09
2022-11-20T00:26:11.817Z,96644.84
2022-11-20T00:28:38.309Z,96651.97
2022-11-20T00:31:13.507Z,96664.06
2022-11-20T00:33:39.884Z,96664.84
2022-11-20T00:36:09.292Z,96664.06
2022-11-20T00:38:36.017Z,96656.91
2022-11-20T00:41:06.292Z,96651.50
2022-11-20T00:43:32.831Z,96657.66
2022-11-20T00:45:59.561Z,96662.03
2022-11-20T00:48:26.314Z,96641.56
2022-11-20T00:50:53.138Z,96655.88
2022-11-20T00:53:19.550Z,96648.97
2022-11-20T00:56:06.116Z,96657.66
2022-11-20T00:58:38.382Z,96658.44
2022-11-20T01:01:25.887Z,96651.50
2022-11-20T01:03:54.430Z,96648.72
2022-11-20T01:06:23.812Z,96661.00
2022-11-20T01:08:54.393Z,96663.31
2022-11-20T01:11:24.368Z,96666.81
2022-11-20T01:13:52.162Z,96655.06
2022-11-20T01:16:18.474Z,96661.75
2022-11-20T01:18:47.176Z,96658.94
2022-11-20T01:21:19.714Z,96653.81
2022-11-20T01:23:47.259Z,96663.78
2022-11-20T01:26:16.061Z,96665.34
2022-11-20T01:28:43.281Z,96661.78
2022-11-20T01:31:14.307Z,96663.81
2022-11-20T01:33:42.072Z,96661.78
2022-11-20T01:36:10.232Z,96659.97
2022-11-20T01:38:36.675Z,96661.25
2022-11-20T01:41:03.758Z,96651.50
2022-11-20T01:43:30.301Z,96653.06
2022-11-20T01:46:01.434Z,96658.47
2022-11-20T01:48:34.676Z,96642.56
2022-11-20T01:51:03.502Z,96653.59
2022-11-20T01:53:34.259Z,96644.91
2022-11-20T01:56:04.295Z,96639.50
2022-11-20T01:58:36.504Z,96629.78
2022-11-20T02:01:04.420Z,96633.38
2022-11-20T02:03:31.665Z,96628.75
2022-11-20T02:06:10.902Z,96633.91
2022-11-20T02:08:38.497Z,96642.63
2022-11-20T02:11:05.241Z,96620.63
2022-11-20T02:13:46.613Z,96633.38
2022-11-20T02:16:20.290Z,96626.47
2022-11-20T02:18:47.628Z,96630.59
2022-11-20T02:21:29.307Z,96619.81
2022-11-20T02:24:08.699Z,96610.09
2022-11-20T02:26:41.263Z,96611.13
2022-11-20T02:29:07.650Z,96598.56
2022-11-20T02:31:43.464Z,96618.31
2022-11-20T02:34:10.341Z,96612.94
2022-11-20T02:36:39.873Z,96594.25
2022-11-20T02:39:07.031Z,96603.97
2022-11-20T02:41:35.387Z,96612.19
2022-11-20T02:44:02.486Z,96617.28
2022-11-20T02:46:29.287Z,96612.94
2022-11-20T02:48:55.894Z,96618.56
2022-11-20T02:51:22.756Z,96593.47
2022-11-20T02:53:49.107Z,96594.00
2022-11-20T02:56:16.354Z,96613.19
2022-11-20T02:58:42.793Z,96619.88
2022-11-20T03:01:09.410Z,96626.25
2022-11-20T03:03:35.869Z,96627.00
2022-11-20T03:06:02.484Z,96611.41
2022-11-20T03:08:29.279Z,96610.88
2022-11-20T03:10:55.639Z,96609.88
2022-11-20T03:13:21.994Z,96615.78
2022-11-20T03:15:48.333Z,96595.03
2022-11-20T03:18:15.671Z,96597.88
2022-11-20T03:20:42.018Z,96597.38
2022-11-20T03:23:08.382Z,96611.19
2022-11-20T03:25:34.746Z,96621.69
2022-11-20T03:28:01.108Z,96612.66
2022-11-20T03:30:30.501Z,96614.22
2022-11-20T03:32:57.348Z,96614.78
2022-11-20T03:35:23.766Z,96610.66
2022-11-20T03:37:50.139Z,96610.66
2022-11-20T03:40:16.660Z,96596.31
2022-11-20T03:42:45.925Z,96608.63
2022-11-20T03:45:17.555Z,96604.00
2022-11-20T03:47:44.812Z,96594.53
2022-11-20T03:50:15.983Z,96594.31
2022-11-20T03:52:42.931Z,96577.41
2022-11-20T03:55:09.466Z,96596.31
2022-11-20T03:57:35.882Z,96589.94
2022-11-20T04:00:02.812Z,96577.41
2022-11-20T04:02:29.149Z,96579.47
2022-11-20T04:04:55.526Z,96582.75
2022-11-20T04:07:22.035Z,96585.84
2022-11-20T04:09:49.123Z,96577.13
2022-11-20T04:12:15.482Z,96570.75
2022-11-20T04:14:41.852Z,96564.63
2022-11-20T04:17:08.211Z,96572.28
2022-11-20T04:19:34.573Z,96578.69
2022-11-20T04:22:00.943Z,96574.59
2022-11-20T04:24:27.592Z,96586.13
2022-11-20T04:26:54.019Z,96586.63
2022-11-20T04:29:20.755Z,96592.75
2022-11-20T04:31:47.368Z,96582.03
2022-11-20T04:34:13.892Z,96594.31
2022-11-20T04:36:40.429Z,96587.41
2022-11-20T04:39:07.495Z,96593.03
2022-11-20T04:41:36.142Z,96597.13
2022-11-20T04:44:04.636Z,96576.13
2022-11-20T04:46:34.285Z,96582.78
2022-11-20T04:49:00.764Z,96597.38
2022-11-20T04:51:28.066Z,96580.25
2022-11-20T04:53:54.791Z,96593.53
2022-11-20T04:56:21.199Z,96578.97
2022-11-20T04:58:47.536Z,96574.84
2022-11-20T05:01:19.576Z,96578.69
2022-11-20T05:03:46.110Z,96572.81
2022-11-20T05:06:15.356Z,96567.69
2022-11-20T05:08:42.141Z,96568.72
2022-11-20T05:11:14.528Z,96570.50
2022-11-20T05:13:41.425Z,96577.91
2022-11-20T05:16:16.776Z,96581.53
2022-11-20T05:18:43.784Z,96561.56
2022-11-20T05:21:11.773Z,96585.09
2022-11-20T05:23:38.791Z,96573.06
2022-11-20T05:26:07.190Z,96586.38
2022-11-20T05:28:34.498Z,96574.84
2022-11-20T05:31:07.465Z,96584.84
2022-11-20T05:33:35.270Z,96579.97
2022-11-20T05:36:02.784Z,96580.47
2022-11-20T05:38:29.147Z,96580.25
2022-11-20T05:40:55.538Z,96573.84
2022-11-20T05:43:22.062Z,96576.63
2022-11-20T05:45:55.258Z,96575.91
2022-11-20T05:48:22.030Z,96565.38
2022-11-20T05:50:49.129Z,96570.00
2022-11-20T05:53:15.504Z,96581.00
2022-11-20T05:55:41.846Z,96576.13
2022-11-20T05:58:08.236Z,96577.69
2022-11-20T06:00:34.631Z,96571.78
2022-11-20T06:03:01.013Z,96568.47
2022-11-20T06:05:27.435Z,96573.06
2022-11-20T06:07:53.792Z,96570.25
2022-11-20T06:10:20.136Z,96582.53
2022-11-20T06:12:46.461Z,96574.06
2022-11-20T06:15:12.806Z,96570.22
2022-11-20T06:17:39.157Z,96579.19
2022-11-20T06:20:06.089Z,96567.91
2022-11-20T06:22:33.447Z,96562.56
2022-11-20T06:24:59.802Z,96559.22
2022-11-20T06:27:26.143Z,96561.00
2022-11-20T06:29:52.486Z,96556.94
2022-11-20T06:32:18.867Z,96557.94
2022-11-20T06:34:45.449Z,96571.25
2022-11-20T06:37:11.831Z,96566.91
2022-11-20T06:39:38.210Z,96569.72
2022-11-20T06:42:04.593Z,96572.00
2022-11-20T06:44:31.006Z,96577.41
2022-11-20T06:46:57.389Z,96585.06
2022-11-20T06:49:24.031Z,96572.03
2022-11-20T06:51:50.708Z,96581.75
2022-11-20T06:54:17.059Z,96580.97
2022-11-20T06:56:43.416Z,96577.66
2022-11-20T06:59:09.829Z,96568.97
2022-11-20T07:01:36.255Z,96566.66
2022-11-20T07:04:03.891Z,96584.84
2022-11-20T07:06:30.350Z,96584.34
2022-11-20T07:08:56.684Z,96591.75
2022-11-20T07:11:23.335Z,96594.84
2022-11-20T07:13:50.412Z,96607.63
2022-11-20T07:16:17.275Z,96587.16
2022-11-20T07:18:48.814Z,96578.97
2022-11-20T07:21:17.047Z,96581.00
2022-11-20T07:23:43.390Z,96594.34
2022-11-20T07:26:11.850Z,96584.09
2022-11-20T07:28:39.148Z,96603.53
2022-11-20T07:31:07.547Z,96598.94
2022-11-20T07:33:33.904Z,96608.13
2022-11-20T07:36:01.023Z,96593.28
2022-11-20T07:38:27.403Z,96601.97
2022-11-20T07:40:58.535Z,96600.19
2022-11-20T07:43:26.090Z,96604.03
2022-11-20T07:45:52.450Z,96605.28
2022-11-20T07:48:18.805Z,96617.09
2022-11-20T07:50:45.158Z,96618.38
2022-11-20T07:53:11.561Z,96602.75
2022-11-20T07:55:37.892Z,96600.19
2022-11-20T07:58:04.263Z,96601.97
2022-11-20T08:00:30.734Z,96607.09
2022-11-20T08:02:57.195Z,96618.31
2022-11-20T08:05:24.606Z,96618.31
2022-11-20T08:07:50.976Z,96602.19
2022-11-20T08:10:17.845Z,96621.66
2022-11-20T08:13:07.629Z,96615.53
2022-11-20T08:15:34.594Z,96619.59
2022-11-20T08:20:59.212Z,96611.38
2022-11-20T08:23:25.631Z,96610.38
2022-11-20T08:25:52.301Z,96622.41
2022-11-20T08:28:21.801Z,96617.00
2022-11-20T08:30:49.746Z,96619.56
2022-11-20T08:33:16.261Z,96624.16
2022-11-20T08:35:43.801Z,96621.63
2022-11-20T08:38:10.642Z,96633.16
2022-11-20T08:40:37.010Z,96632.38
2022-11-20T08:43:03.366Z,96642.66
2022-11-20T08:45:34.269Z,96631.88
2022-11-20T08:48:02.488Z,96635.72
2022-11-20T08:50:28.890Z,96653.66
2022-11-20T08:52:55.232Z,96635.72
2022-11-20T08:55:21.563Z,96651.88
2022-11-20T08:57:50.854Z,96653.63
2022-11-20T09:00:17.833Z,96641.88
2022-11-20T09:02:44.211Z,96647.75
2022-11-20T09:05:10.585Z,96654.13
2022-11-20T09:07:36.981Z,96659.50
2022-11-20T09:10:25.589Z,96639.28
2022-11-20T09:12:52.511Z,96636.44
2022-11-20T09:15:19.692Z,96644.88
2022-11-20T09:17:56.740Z,96650.28
2022-11-20T09:20:23.250Z,96635.72
2022-11-20T09:22:49.605Z,96651.56
2022-11-20T09:25:16.017Z,96633.66
2022-11-20T09:27:44.557Z,96649.53
2022-11-20T09:30:11.449Z,96647.22
2022-11-20T09:32:39.946Z,96643.34
2022-11-20T09:35:06.607Z,96646.38
2022-11-20T09:37:33.142Z,96639.47
2022-11-20T09:39:59.490Z,96642.78
2022-11-20T09:42:39.699Z,96645.81
2022-11-20T09:45:22.611Z,96641.19
2022-11-20T09:48:11.610Z,96631.22
2022-11-20T09:50:58.906Z,96645.56
2022-11-20T09:53:56.626Z,96648.59
2022-11-20T09:56:24.117Z,96633.78
2022-11-20T09:58:53.241Z,96645.03
2022-11-20T10:01:22.611Z,96644.97
2022-11-20T10:04:01.741Z,96645.78
2022-11-20T10:06:40.888Z,96639.63
2022-11-20T10:09:22.602Z,96645.72
2022-11-20T10:12:16.338Z,96645.41
2022-11-20T10:14:54.605Z,96635.94
2022-11-20T10:17:51.529Z,96638.03
2022-11-20T10:20:44.155Z,96635.94
2022-11-20T10:23:34.045Z,96632.31
2022-11-20T10:26:12.307Z,96631.78
2022-11-20T10:29:16.176Z,96618.63
2022-11-20T10:31:46.834Z,96603.28
2022-11-20T10:34:23.348Z,96613.78
2022-11-20T10:36:59.713Z,96609.41
2022-11-20T10:39:43.243Z,96600.16
2022-11-20T10:42:18.477Z,96598.88
2022-11-20T10:45:06.368Z,96607.75
2022-11-20T10:47:34.165Z,96599.00
2022-11-20T10:50:06.870Z,96601.56
2022-11-20T10:52:51.835Z,96613.09
2022-11-20T10:55:56.783Z,96604.84
2022-11-20T10:58:53.696Z,96596.16
2022-11-20T11:01:24.708Z,96598.94
2022-11-20T11:03:53.293Z,96590.94
2022-11-20T11:06:28.857Z,96602.69
2022-11-20T11:08:59.279Z,96583.66
2022-11-20T11:11:29.994Z,96579.53
2022-11-20T11:14:12.624Z,96587.19
2022-11-20T11:16:56.947Z,96592.22
2022-11-20T11:19:24.263Z,96577.63
2022-11-20T11:21:57.961Z,96582.13
2022-11-20T11:24:43.031Z,96567.41
2022-11-20T11:27:18.010Z,96567.97
2022-11-20T11:29:45.867Z,96570.19
2022-11-20T11:32:15.529Z,96541.78
2022-11-20T11:34:42.300Z,96555.06
2022-11-20T11:37:18.457Z,96555.81
2022-11-20T11:39:49.388Z,96558.59
2022-11-20T11:42:21.746Z,96569.72
2022-11-20T11:45:07.290Z,96560.47
2022-11-20T11:47:37.523Z,96554.75
2022-11-20T11:50:17.627Z,96555.94
2022-11-20T11:52:47.139Z,96555.56
2022-11-20T11:55:41.035Z,96541.47
2022-11-20T11:58:25.363Z,96546.47
2022-11-20T12:00:58.369Z,96544.13
2022-11-20T12:03:38.102Z,96530.56
2022-11-20T12:06:15.221Z,96545.03
2022-11-20T12:08:44.579Z,96537.75
2022-11-20T12:11:20.852Z,96549.44
2022-11-20T12:14:12.342Z,96529.81
2022-11-20T12:16:40.111Z,96536.00
2022-11-20T12:19:13.103Z,96525.97
2022-11-20T12:21:51.073Z,96530.88
2022-11-20T12:24:47.544Z,96536.97
2022-11-20T12:27:41.971Z,96527.13
2022-11-20T12:30:16.576Z,96517.72
2022-11-20T12:33:01.107Z,96526.81
2022-11-20T12:36:15.595Z,96525.16
2022-11-20T12:39:00.442Z,96519.44
2022-11-20T12:42:07.102Z,96519.38
2022-11-20T12:45:12.029Z,96517.22
2022-11-20T12:48:05.531Z,96513.31
2022-11-20T12:51:13.330Z,96504.47
2022-11-20T12:54:04.715Z,96508.13
2022-11-20T12:56:37.180Z,96508.72
2022-11-20T12:59:25.081Z,96498.72
2022-11-20T13:02:10.137Z,96489.88
2022-11-20T13:04:36.425Z,96490.66
2022-11-20T13:07:06.630Z,96475.19
2022-11-20T13:09:34.669Z,96488.19
2022-11-20T13:12:03.936Z,96480.34
2022-11-20T13:14:40.716Z,96477.78
2022-11-20T13:17:31.802Z,96481.09
2022-11-20T13:20:01.833Z,96480.94
2022-11-20T13:22:30.780Z,96477.38
2022-11-20T13:24:57.243Z,96472.13
2022-11-20T13:27:24.760Z,96465.72
2022-11-20T13:30:15.166Z,96461.91
2022-11-20T13:32:53.674Z,96466.88
2022-11-20T13:35:35.377Z,96462.78
2022-11-20T13:38:13.144Z,96464.59
2022-11-20T13:40:56.081Z,96462.78
2022-11-20T13:43:26.971Z,96445.41
2022-11-20T13:46:11.425Z,96452.94
2022-11-20T13:48:44.394Z,96458.19
2022-11-20T13:51:13.823Z,96458.84
2022-11-20T13:53:57.872Z,96455.03
2022-11-20T13:56:48.801Z,96454.19
2022-11-20T13:59:32.482Z,96456.19
2022-11-20T14:01:59.241Z,96442.81
2022-11-20T14:04:36.400Z,96455.34
2022-11-20T14:07:06.469Z,96435.28
2022-11-20T14:09:35.124Z,96443.47
2022-11-20T14:12:03.804Z,96430.00
2022-11-20T14:14:32.041Z,96425.59
2022-11-20T14:17:29.541Z,96425.78
2022-11-20T14:20:00.114Z,96413.75
2022-11-20T14:22:27.504Z,96435.28
2022-11-20T14:25:17.355Z,96435.28
2022-11-20T14:27:48.748Z,96410.41
2022-11-20T14:30:17.773Z,96417.09
2022-11-20T14:32:46.185Z,96420.72
2022-11-20T14:35:28.500Z,96415.09
2022-11-20T14:37:56.053Z,96416.34
2022-11-20T14:40:23.762Z,96412.59
2022-11-20T14:42:50.186Z,96400.28
2022-11-20T14:45:17.354Z,96395.88
2022-11-20T14:47:44.327Z,96404.91
2022-11-20T14:50:20.084Z,96396.25
2022-11-20T14:52:57.929Z,96405.56
2022-11-20T14:55:28.430Z,96405.31
2022-11-20T14:58:06.306Z,96391.97
2022-11-20T15:00:35.238Z,96386.13
2022-11-20T15:03:01.601Z,96388.69
2022-11-20T15:05:47.241Z,96385.69
2022-11-20T15:08:14.630Z,96400.03
2022-11-20T15:10:48.732Z,96385.44
2022-11-20T15:13:23.812Z,96381.94
2022-11-20T15:15:52.876Z,96387.56
2022-11-20T15:18:31.949Z,96382.53
2022-11-20T15:21:02.141Z,96383.38
2022-11-20T15:23:29.627Z,96376.13
2022-11-20T15:25:56.805Z,96381.28
2022-11-20T15:28:30.204Z,96383.09
2022-11-20T15:30:59.591Z,96364.97
2022-11-20T15:33:26.062Z,96376.50
2022-11-20T15:35:52.435Z,96377.84
2022-11-20T15:38:18.788Z,96364.84
2022-11-20T15:40:45.180Z,96371.25
2022-11-20T15:43:13.742Z,96366.19
2022-11-20T15:45:46.473Z,96374.09
2022-11-20T15:48:20.001Z,96366.19
2022-11-20T15:51:00.499Z,96354.44
2022-11-20T15:53:27.037Z,96358.72
2022-11-20T15:55:53.848Z,96356.94
2022-11-20T15:58:20.332Z,96342.53
2022-11-20T16:00:46.918Z,96359.16
2022-11-20T16:03:14.549Z,96337.88
2022-11-20T16:05:41.053Z,96337.03
2022-11-20T16:08:11.550Z,96350.28
2022-11-20T16:10:38.441Z,96342.19
2022-11-20T16:13:23.287Z,96338.97
2022-11-20T16:15:58.458Z,96339.19
2022-11-20T16:18:26.048Z,96337.78
2022-11-20T16:20:54.308Z,96348.25
2022-11-20T16:23:21.639Z,96322.47
2022-11-20T16:25:48.253Z,96326.03
2022-11-20T16:28:18.838Z,96320.97
2022-11-20T16:30:46.135Z,96310.94
2022-11-20T16:33:15.066Z,96316.06
2022-11-20T16:35:41.850Z,96313.59
2022-11-20T16:38:08.250Z,96304.28
2022-11-20T16:40:35.211Z,96295.41
2022-11-20T16:43:11.979Z,96295.19
2022-11-20T16:45:43.201Z,96303.88
2022-11-20T16:48:13.087Z,96295.50
2022-11-20T16:50:54.299Z,96294.34
2022-11-20T16:53:22.128Z,96294.53
2022-11-20T16:55:48.794Z,96269.56
2022-11-20T16:58:15.474Z,96284.25
2022-11-20T17:00:46.889Z,96275.75
2022-11-20T17:03:17.724Z,96265.84
2022-11-20T17:05:44.142Z,96262.97
2022-11-20T17:08:10.505Z,96265.25
2022-11-20T17:10:36.846Z,96251.06
2022-11-20T17:13:03.227Z,96261.94
2022-11-20T17:15:29.595Z,96250.97
2022-11-20T17:17:55.946Z,96234.47
2022-11-20T17:20:22.326Z,96248.88
2022-11-20T17:22:48.723Z,96233.34
2022-11-20T17:25:15.143Z,96239.03
2022-11-20T17:27:41.518Z,96255.63
2022-11-20T17:30:08.425Z,96239.03
2022-11-20T17:32:34.794Z,96243.16
2022-11-20T17:35:01.593Z,96235.78
2022-11-20T17:37:27.943Z,96231.81
2022-11-20T17:39:54.375Z,96222.94
2022-11-20T17:42:26.647Z,96225.50
2022-11-20T17:44:53.043Z,96227.50
2022-11-20T17:47:19.393Z,96214.47
2022-11-20T17:49:46.017Z,96225.69
2022-11-20T17:52:12.404Z,96226.16
2022-11-20T17:54:38.743Z,96227.50
2022-11-20T17:57:24.906Z,96210.56
2022-11-20T17:59:51.255Z,96211.22
2022-11-20T18:02:17.619Z,96205.69
2022-11-20T18:04:44.864Z,96201.78
2022-11-20T18:07:11.273Z,96199.59
2022-11-20T18:09:37.689Z,96179.97
2022-11-20T18:12:04.320Z,96175.88
2022-11-20T18:14:36.161Z,96180.16
2022-11-20T18:17:12.033Z,96185.88
2022-11-20T18:19:48.010Z,96189.59
2022-11-20T18:22:22.735Z,96165.28
2022-11-20T18:24:49.434Z,96178.94
2022-11-20T18:27:19.373Z,96169.00
2022-11-20T18:29:47.952Z,96174.34
2022-11-20T18:32:14.725Z,96149.47
2022-11-20T18:34:41.069Z,96163.69
2022-11-20T18:37:09.679Z,96162.63
2022-11-20T18:39:36.587Z,96161.69
2022-11-20T18:42:21.731Z,96154.91
2022-11-20T18:44:51.249Z,96158.25
2022-11-20T18:47:19.120Z,96172.91
2022-11-20T18:49:52.531Z,96166.31
2022-11-20T18:52:27.801Z,96152.22
2022-11-20T18:54:54.935Z,96155.88
2022-11-20T18:57:24.233Z,96161.47
2022-11-20T18:59:51.170Z,96147.75
2022-11-20T19:02:20.059Z,96140.91
2022-11-20T19:04:46.902Z,96149.59
2022-11-20T19:07:14.064Z,96149.00
2022-11-20T19:09:47.963Z,96146.25
2022-11-20T19:12:14.852Z,96142.50
2022-11-20T19:14:41.291Z,96134.88
2022-11-20T19:17:08.767Z,96136.44
2022-11-20T19:19:35.394Z,96139.00
2022-11-20T19:22:02.055Z,96136.06
2022-11-20T19:24:28.792Z,96128.13
2022-11-20T19:26:56.162Z,96139.00
2022-11-20T19:29:24.839Z,96133.75
2022-11-20T19:31:51.687Z,96122.63
2022-11-20T19:34:18.169Z,96114.72
2022-11-20T19:36:45.063Z,96122.53
2022-11-20T19:39:12.163Z,96108.59
2022-11-20T19:41:40.426Z,96141.47
2022-11-20T19:44:12.613Z,96112.72
2022-11-20T19:46:40.147Z,96117.47
2022-11-20T19:49:10.097Z,96108.59
2022-11-20T19:51:38.870Z,96112.41
2022-11-20T19:54:06.281Z,96114.59
2022-11-20T19:56:33.963Z,96117.28
2022-11-20T19:59:00.565Z,96114.03
2022-11-20T20:01:29.717Z,96095.84
2022-11-20T20:04:01.211Z,96112.91
2022-11-20T20:06:28.440Z,96092.59
2022-11-20T20:09:07.105Z,96086.41
2022-11-20T20:11:34.838Z,96085.34
2022-11-20T20:14:09.928Z,96077.84
2022-11-20T20:16:36.630Z,96075.84
2022-11-20T20:19:04.654Z,96084.72
2022-11-20T20:21:32.991Z,96087.56
2022-11-20T20:24:00.320Z,96086.22
2022-11-20T20:26:30.235Z,96085.09
2022-11-20T20:28:56.806Z,96097.38
2022-11-20T20:31:25.311Z,96091.78
2022-11-20T20:33:51.750Z,96095.56
2022-11-20T20:36:20.031Z,96107.56
2022-11-20T20:38:47.087Z,96104.22
2022-11-20T20:41:19.684Z,96090.22
2022-11-20T20:44:05.042Z,96105.88
2022-11-20T20:46:31.400Z,96093.09
2022-11-20T20:48:57.808Z,96090.69
2022-11-20T20:51:24.370Z,96104.13
2022-11-20T20:53:50.777Z,96107.88
2022-11-20T20:56:18.072Z,96100.88
2022-11-20T20:58:45.019Z,96104.03
2022-11-20T21:01:14.361Z,96096.03
2022-11-20T21:03:40.868Z,96085.19
2022-11-20T21:06:09.755Z,96099.63
2022-11-20T21:08:40.143Z,96084.88
2022-11-20T21:11:12.863Z,96085.75
2022-11-20T21:13:42.644Z,96090.22
2022-11-20T21:16:09.925Z,96103.75
2022-11-20T21:18:36.416Z,96083.38
2022-11-20T21:21:26.655Z,96085.28
2022-11-20T21:23:53.537Z,96097.38
2022-11-20T21:26:20.470Z,96087.44
2022-11-20T21:28:46.903Z,96095.34
2022-11-20T21:31:29.817Z,96096.00
2022-11-20T21:33:56.829Z,96102.66
2022-11-20T21:36:25.753Z,96106.84
2022-11-20T21:38:56.333Z,96097.03
2022-11-20T21:41:25.141Z,96110.00
2022-11-20T21:44:23.728Z,96117.19
2022-11-20T21:46:41.319Z,96101.41
2022-11-20T21:49:07.801Z,96103.41
2022-11-20T21:51:34.254Z,96087.88
2022-11-20T21:54:00.692Z,96101.63
2022-11-20T21:56:27.250Z,96083.72
2022-11-20T21:58:54.776Z,96080.91
2022-11-20T22:01:29.780Z,96087.69
2022-11-20T22:04:01.158Z,96085.72
2022-11-20T22:06:34.807Z,96102.09
2022-11-20T22:09:02.691Z,96103.13
2022-11-20T22:11:29.325Z,96100.19
2022-11-20T22:14:14.059Z,96097.16
2022-11-20T22:16:40.540Z,96088.97
2022-11-20T22:19:07.478Z,96098.66
2022-11-20T22:21:34.612Z,96102.88
2022-11-20T22:24:01.417Z,96083.19
2022-11-20T22:26:31.714Z,96096.81
2022-11-20T22:29:00.678Z,96088.44
2022-11-20T22:31:29.329Z,96106.44
2022-11-20T22:33:57.257Z,96108.50
2022-11-20T22:36:25.827Z,96103.84
2022-11-20T22:38:52.390Z,96108.69
2022-11-20T22:41:21.441Z,96117.09
2022-11-20T22:43:48.479Z,96123.94
2022-11-20T22:46:16.996Z,96117.09
2022-11-20T22:48:50.349Z,96102.31
2022-11-20T22:51:18.654Z,96105.09
2022-11-20T22:53:44.998Z,96117.09
2022-11-20T22:56:12.525Z,96110.44
2022-11-20T22:58:41.416Z,96126.34
2022-11-20T23:01:17.061Z,96112.16
2022-11-20T23:03:46.059Z,96116.72
2022-11-20T23:06:13.090Z,96103.97
2022-11-20T23:08:41.444Z,96096.72
2022-11-20T23:11:11.368Z,96091.78
2022-11-20T23:13:37.852Z,96102.63
2022-11-20T23:16:13.706Z,96099.75
2022-11-20T23:18:40.812Z,96101.94
2022-11-20T23:21:09.577Z,96103.66
2022-11-20T23:23:36.573Z,96114.50
2022-11-20T23:26:13.603Z,96113.44
2022-11-20T23:28:41.307Z,96114.22
2022-11-20T23:31:08.962Z,96121.75
2022-11-20T23:33:36.903Z,96106.13
2022-11-20T23:36:04.049Z,96100.59
2022-11-20T23:38:30.400Z,96102.13
2022-11-20T23:40:56.780Z,96104.22
2022-11-20T23:43:23.171Z,96092.69
2022-11-20T23:45:52.653Z,96100.34
2022-11-20T23:48:20.416Z,96104.59
2022-11-20T23:50:47.534Z,96104.78
2022-11-20T23:53:14.611Z,96100.13
2022-11-20T23:55:45.935Z,96101.47
2022-11-20T23:58:13.209Z,96092.59
